createdAt,value
2019-05-15T00:04:49.214Z,19.50
2019-05-15T00:14:53.007Z,23.53
2019-05-15T00:24:58.151Z,26.46
2019-05-15T00:35:01.859Z,25.60
2019-05-15T00:45:09.489Z,24.75
2019-05-15T00:55:12.889Z,23.71
2019-05-15T01:05:18.522Z,22.74
2019-05-15T01:15:21.791Z,20.98
2019-05-15T01:25:25.365Z,20.35
2019-05-15T01:35:29.044Z,20.03
2019-05-15T01:45:32.617Z,19.76
2019-05-15T01:55:36.248Z,19.52
2019-05-15T02:05:40.017Z,19.40
2019-05-15T02:15:45.210Z,19.32
2019-05-15T02:25:48.786Z,21.84
2019-05-15T02:35:52.349Z,26.24
2019-05-15T02:45:55.954Z,25.69
2019-05-15T02:56:00.353Z,24.52
2019-05-15T03:06:04.031Z,23.39
2019-05-15T03:16:10.038Z,22.52
2019-05-15T03:26:14.331Z,21.29
2019-05-15T03:36:23.488Z,20.12
2019-05-15T03:46:23.198Z,19.76
2019-05-15T03:56:29.420Z,19.66
2019-05-15T04:06:32.068Z,19.41
2019-05-15T04:16:38.753Z,19.25
2019-05-15T04:26:41.046Z,19.22
2019-05-15T04:36:44.985Z,19.28
2019-05-15T04:46:49.877Z,23.63
2019-05-15T04:56:53.676Z,26.11
2019-05-15T05:06:58.700Z,25.32
2019-05-15T05:17:02.468Z,24.16
2019-05-15T05:27:08.587Z,23.13
2019-05-15T05:37:11.403Z,21.97
2019-05-15T05:47:14.968Z,20.70
2019-05-15T05:57:19.344Z,20.12
2019-05-15T06:07:23.105Z,19.82
2019-05-15T06:17:28.080Z,19.62
2019-05-15T06:27:31.844Z,19.52
2019-05-15T06:37:35.443Z,19.38
2019-05-15T06:47:39.607Z,20.88
2019-05-15T06:57:43.432Z,25.40
2019-05-15T07:07:48.849Z,26.31
2019-05-15T07:17:52.323Z,25.04
2019-05-15T07:27:58.095Z,23.93
2019-05-15T07:38:01.265Z,23.10
2019-05-15T07:48:05.105Z,21.90
2019-05-15T07:58:08.733Z,20.88
2019-05-15T08:08:12.381Z,20.21
2019-05-15T08:18:17.987Z,19.93
2019-05-15T08:28:21.266Z,19.73
2019-05-15T08:38:24.837Z,19.63
2019-05-15T08:48:28.410Z,19.49
2019-05-15T08:58:31.996Z,21.98
2019-05-15T09:08:35.560Z,26.16
2019-05-15T09:18:39.396Z,25.96
2019-05-15T09:28:43.121Z,24.76
2019-05-15T09:38:48.863Z,23.66
2019-05-15T09:48:52.281Z,21.58
2019-05-15T09:58:58.022Z,21.58
2019-05-15T10:09:01.174Z,20.49
2019-05-15T10:19:05.159Z,20.12
2019-05-15T10:29:09.231Z,19.80
2019-05-15T10:39:13.124Z,19.62
2019-05-15T10:49:18.796Z,19.44
2019-05-15T10:59:22.008Z,24.62
2019-05-15T11:09:25.582Z,24.62
2019-05-15T11:19:35.789Z,26.35
2019-05-15T11:29:34.489Z,25.49
2019-05-15T11:39:46.090Z,24.37
2019-05-15T11:49:43.804Z,23.58
2019-05-15T11:59:54.767Z,22.43
2019-05-15T12:09:54.166Z,21.16
2019-05-15T12:20:05.425Z,20.47
2019-05-15T12:30:03.365Z,20.03
2019-05-15T13:00:19.827Z,19.63
2019-05-15T13:10:24.396Z,19.53
2019-05-15T13:20:28.797Z,20.42
2019-05-15T13:30:32.666Z,25.02
2019-05-15T13:40:41.062Z,26.00
2019-05-15T13:50:41.884Z,25.59
2019-05-15T14:00:45.504Z,24.74
2019-05-15T14:10:49.104Z,23.22
2019-05-15T14:20:52.718Z,21.62
2019-05-15T14:30:58.628Z,21.14
2019-05-15T14:41:01.618Z,22.58
2019-05-15T14:51:06.164Z,25.26
2019-05-15T15:01:12.151Z,26.08
2019-05-15T15:11:17.813Z,24.98
2019-05-15T15:21:22.712Z,24.13
2019-05-15T15:31:28.725Z,22.77
2019-05-15T15:41:31.570Z,21.90
2019-05-15T15:51:35.158Z,21.56
2019-05-15T16:01:39.269Z,21.23
2019-05-15T16:11:43.165Z,21.09
2019-05-15T16:21:49.043Z,23.12
2019-05-15T16:31:52.342Z,25.15
2019-05-15T16:41:55.940Z,24.92
2019-05-15T16:51:59.761Z,24.01
2019-05-15T17:02:03.372Z,23.25
2019-05-15T17:12:08.743Z,22.09
2019-05-15T17:22:12.530Z,21.71
2019-05-15T17:32:18.436Z,21.43
2019-05-15T17:42:22.140Z,20.95
2019-05-15T17:52:26.033Z,20.95
2019-05-15T18:02:29.750Z,20.83
2019-05-15T18:12:33.502Z,22.02
2019-05-15T18:22:38.019Z,26.32
2019-05-15T18:32:42.278Z,26.60
2019-05-15T18:42:46.121Z,25.75
2019-05-15T18:52:49.775Z,24.88
2019-05-15T19:02:53.491Z,23.87
2019-05-15T19:12:58.105Z,22.25
2019-05-15T19:23:02.275Z,21.27
2019-05-15T19:33:07.868Z,20.79
2019-05-15T19:43:11.777Z,20.48
2019-05-15T19:53:15.474Z,20.29
2019-05-15T20:03:19.131Z,20.12
2019-05-15T20:13:22.790Z,19.89
2019-05-15T20:23:28.736Z,19.74
2019-05-15T20:33:32.654Z,19.78
2019-05-15T20:43:38.284Z,22.65
2019-05-15T20:53:41.705Z,25.91
2019-05-15T21:03:45.668Z,25.82
2019-05-15T21:13:49.488Z,24.94
2019-05-15T21:23:53.593Z,24.18
2019-05-15T21:33:58.883Z,23.42
2019-05-15T21:44:02.649Z,21.72
2019-05-15T21:54:06.511Z,20.86
2019-05-15T22:04:10.178Z,20.44
2019-05-15T22:14:14.026Z,20.15
2019-05-15T22:24:18.280Z,19.99
2019-05-15T22:34:22.084Z,19.80
2019-05-15T22:44:28.175Z,19.90
2019-05-15T22:54:31.718Z,23.68
2019-05-15T23:04:37.843Z,25.35
2019-05-15T23:14:41.516Z,25.40
2019-05-15T23:24:45.242Z,24.63
2019-05-15T23:34:49.292Z,24.13
2019-05-15T23:44:52.963Z,23.46
2019-05-15T23:54:58.850Z,22.17
